Time,TemperatureF,DewpointF,PressureIn,WindDirection,WindDirectionDegrees,WindSpeedMPH,WindSpeedGustMPH,Humidity,HourlyPrecipIn,Conditions,Clouds,dailyrainin,SoftwareType,DateUTC
2013-02-16 00:00:00,22.7,14.1,30.24,NW,319,9.6,12.5,69,0.00,,,0.00,VWS V13.01,2013-02-16 06:00:00,
2013-02-16 00:01:00,25.8,13.3,30.19,NW,305,9.0,9.9,58,0.00,,,0.00,VWS V13.01,2013-02-16 06:01:00,
2013-02-16 00:02:00,25.8,13.3,30.19,NW,311,9.9,11.4,59,0.00,,,0.00,VWS V13.01,2013-02-16 06:02:00,
2013-02-16 00:03:00,25.8,13.4,30.19,NW,315,9.6,10.0,59,0.00,,,0.00,VWS V13.01,2013-02-16 06:03:00,
2013-02-16 00:04:00,25.7,13.3,30.19,NW,311,11.2,11.4,59,0.00,,,0.00,VWS V13.01,2013-02-16 06:04:00,
2013-02-16 00:05:00,22.4,13.9,30.24,WNW,283,15.6,16.8,69,0.00,,,0.00,VWS V13.01,2013-02-16 06:05:00,
2013-02-16 00:06:00,25.8,13.5,30.19,NW,308,10.6,11.2,59,0.00,,,0.00,VWS V13.01,2013-02-16 06:06:00,
2013-02-16 00:07:00,25.8,13.5,30.19,WNW,301,11.2,12.9,59,0.00,,,0.00,VWS V13.01,2013-02-16 06:07:00,
2013-02-16 00:08:00,26.0,13.8,30.19,NW,311,11.1,11.2,59,0.00,,,0.00,VWS V13.01,2013-02-16 06:08:00,
2013-02-16 00:09:00,25.7,13.5,30.19,NW,315,12.1,12.1,59,0.00,,,0.00,VWS V13.01,2013-02-16 06:09:00,
2013-02-16 00:10:00,22.3,13.7,30.24,NW,315,13.1,14.0,69,0.00,,,0.00,VWS V13.01,2013-02-16 06:10:00,
2013-02-16 00:11:00,25.6,13.5,30.19,NW,314,9.7,10.7,60,0.00,,,0.00,VWS V13.01,2013-02-16 06:11:00,
2013-02-16 00:12:00,25.7,13.8,30.19,NW,309,10.2,11.7,60,0.00,,,0.00,VWS V13.01,2013-02-16 06:12:00,
2013-02-16 00:13:00,25.6,13.7,30.19,NW,314,10.1,10.3,60,0.00,,,0.00,VWS V13.01,2013-02-16 06:13:00,
2013-02-16 00:14:00,25.6,13.7,30.19,NW,311,8.9,10.3,60,0.00,,,0.00,VWS V13.01,2013-02-16 06:14:00,
2013-02-16 00:15:00,22.3,13.7,30.24,WNW,302,14.5,14.5,69,0.00,,,0.00,VWS V13.01,2013-02-16 06:15:00,
2013-02-16 00:16:00,25.7,13.9,30.19,WNW,297,9.1,9.4,60,0.00,,,0.00,VWS V13.01,2013-02-16 06:16:00,
2013-02-16 00:17:00,25.4,13.6,30.19,NW,304,10.0,10.1,60,0.00,,,0.00,VWS V13.01,2013-02-16 06:17:00,
2013-02-16 00:18:00,25.7,13.8,30.19,NW,305,8.3,9.4,60,0.00,,,0.00,VWS V13.01,2013-02-16 06:18:00,
2013-02-16 00:19:00,25.4,13.4,30.20,NW,307,8.6,9.6,60,0.00,,,0.00,VWS V13.01,2013-02-16 06:19:00,
2013-02-16 00:20:00,22.1,13.7,30.24,NW,314,12.7,12.7,70,0.00,,,0.00,VWS V13.01,2013-02-16 06:20:00,
2013-02-16 00:21:00,25.5,13.5,30.20,NW,316,7.8,8.6,60,0.00,,,0.00,VWS V13.01,2013-02-16 06:21:00,
2013-02-16 00:22:00,25.2,13.3,30.20,NW,311,8.4,8.7,60,0.00,,,0.00,VWS V13.01,2013-02-16 06:22:00,
2013-02-16 00:23:00,25.4,13.5,30.20,NW,318,8.9,9.5,60,0.00,,,0.00,VWS V13.01,2013-02-16 06:23:00,
2013-02-16 00:24:00,25.4,13.5,30.20,NW,311,8.1,8.5,60,0.00,,,0.00,VWS V13.01,2013-02-16 06:24:00,
2013-02-16 00:25:00,21.5,12.9,30.24,NW,318,11.1,14.7,69,0.00,,,0.00,VWS V13.01,2013-02-16 06:25:00,
2013-02-16 00:26:00,25.2,13.3,30.20,NW,311,9.1,9.1,60,0.00,,,0.00,VWS V13.01,2013-02-16 06:26:00,
2013-02-16 00:27:00,25.2,13.3,30.20,NW,305,7.7,10.0,60,0.00,,,0.00,VWS V13.01,2013-02-16 06:27:00,
2013-02-16 00:28:00,25.1,13.3,30.20,NW,311,8.2,9.6,60,0.00,,,0.00,VWS V13.01,2013-02-16 06:28:00,
2013-02-16 00:29:00,25.2,13.4,30.20,NW,308,8.9,10.0,60,0.00,,,0.00,VWS V13.01,2013-02-16 06:29:00,
2013-02-16 00:30:00,22.0,13.2,30.24,NW,307,13.7,14.9,68,0.00,,,0.00,VWS V13.01,2013-02-16 06:30:00,
2013-02-16 00:31:00,24.7,12.9,30.20,NW,315,9.4,11.6,60,0.00,,,0.00,VWS V13.01,2013-02-16 06:31:00,
2013-02-16 00:32:00,24.9,13.3,30.20,NW,307,9.2,11.4,61,0.00,,,0.00,VWS V13.01,2013-02-16 06:32:00,
2013-02-16 00:33:00,24.9,13.3,30.20,NW,309,8.8,11.1,61,0.00,,,0.00,VWS V13.01,2013-02-16 06:33:00,
2013-02-16 00:34:00,24.8,13.3,30.20,NW,307,9.3,11.0,61,0.00,,,0.00,VWS V13.01,2013-02-16 06:34:00,
2013-02-16 00:35:00,21.8,13.2,30.24,NW,321,11.5,14.4,69,0.00,,,0.00,VWS V13.01,2013-02-16 06:35:00,
2013-02-16 00:36:00,24.8,13.5,30.20,NW,307,9.3,10.3,62,0.00,,,0.00,VWS V13.01,2013-02-16 06:36:00,
2013-02-16 00:37:00,24.7,13.5,30.20,NW,309,8.3,9.7,62,0.00,,,0.00,VWS V13.01,2013-02-16 06:37:00,
2013-02-16 00:38:00,25.0,14.0,30.20,NW,308,10.6,11.4,62,0.00,,,0.00,VWS V13.01,2013-02-16 06:38:00,
2013-02-16 00:39:00,24.8,13.7,30.20,NW,308,9.0,9.6,62,0.00,,,0.00,VWS V13.01,2013-02-16 06:39:00,
2013-02-16 00:40:00,21.9,13.4,30.24,NW,314,9.4,11.7,69,0.00,,,0.00,VWS V13.01,2013-02-16 06:40:00,
2013-02-16 00:41:00,24.9,13.8,30.20,NW,314,8.9,10.1,62,0.00,,,0.00,VWS V13.01,2013-02-16 06:41:00,
2013-02-16 00:42:00,24.8,13.7,30.20,NW,314,7.8,9.1,62,0.00,,,0.00,VWS V13.01,2013-02-16 06:42:00,
2013-02-16 00:43:00,24.9,14.0,30.20,NW,307,9.1,9.1,63,0.00,,,0.00,VWS V13.01,2013-02-16 06:43:00,
2013-02-16 00:44:00,24.6,13.8,30.20,NW,308,7.9,8.4,63,0.00,,,0.00,VWS V13.01,2013-02-16 06:44:00,
2013-02-16 00:45:00,22.0,13.5,30.24,WNW,295,8.8,11.5,69,0.00,,,0.00,VWS V13.01,2013-02-16 06:45:00,
2013-02-16 00:46:00,24.7,13.7,30.20,WNW,302,7.7,9.6,62,0.00,,,0.00,VWS V13.01,2013-02-16 06:46:00,
2013-02-16 00:47:00,25.0,14.0,30.20,NW,308,7.5,9.8,62,0.00,,,0.00,VWS V13.01,2013-02-16 06:47:00,
2013-02-16 00:48:00,24.7,13.7,30.20,WNW,298,8.3,9.1,62,0.00,,,0.00,VWS V13.01,2013-02-16 06:48:00,
2013-02-16 00:49:00,24.5,13.5,30.20,NW,308,9.1,9.2,62,0.00,,,0.00,VWS V13.01,2013-02-16 06:49:00,
2013-02-16 00:50:00,21.7,13.2,30.24,NW,311,9.8,11.1,69,0.00,,,0.00,VWS V13.01,2013-02-16 06:50:00,
2013-02-16 00:51:00,24.7,13.7,30.20,NW,308,8.8,9.6,62,0.00,,,0.00,VWS V13.01,2013-02-16 06:51:00,
2013-02-16 00:52:00,24.7,13.7,30.20,NW,305,9.1,9.8,62,0.00,,,0.00,VWS V13.01,2013-02-16 06:52:00,
2013-02-16 00:53:00,24.6,13.6,30.20,NW,307,9.1,9.1,62,0.00,,,0.00,VWS V13.01,2013-02-16 06:53:00,
2013-02-16 00:54:00,24.5,13.6,30.20,NW,304,10.9,11.7,63,0.00,,,0.00,VWS V13.01,2013-02-16 06:54:00,
2013-02-16 00:55:00,21.4,13.1,30.24,NW,325,10.4,11.1,70,0.00,,,0.00,VWS V13.01,2013-02-16 06:55:00,
2013-02-16 00:56:00,24.4,13.5,30.20,NW,309,12.2,12.2,63,0.00,,,0.00,VWS V13.01,2013-02-16 06:56:00,
2013-02-16 00:57:00,24.3,13.5,30.20,NW,314,9.1,11.6,63,0.00,,,0.00,VWS V13.01,2013-02-16 06:57:00,
2013-02-16 00:58:00,24.4,13.4,30.20,NW,309,9.8,10.4,62,0.00,,,0.00,VWS V13.01,2013-02-16 06:58:00,
2013-02-16 00:59:00,24.4,13.5,30.21,WNW,300,10.0,13.0,63,0.00,,,0.00,VWS V13.01,2013-02-16 06:59:00,
2013-02-16 01:00:00,21.2,13.0,30.24,NW,319,11.2,11.2,70,0.00,,,0.00,VWS V13.01,2013-02-16 07:00:00,
2013-02-16 01:01:00,24.5,13.7,30.21,NW,314,8.9,10.2,63,0.00,,,0.00,VWS V13.01,2013-02-16 07:01:00,
2013-02-16 01:02:00,24.2,13.4,30.20,NW,305,9.4,9.9,63,0.00,,,0.00,VWS V13.01,2013-02-16 07:02:00,
2013-02-16 01:03:00,24.3,13.5,30.20,NW,307,8.1,9.9,63,0.00,,,0.00,VWS V13.01,2013-02-16 07:03:00,
2013-02-16 01:04:00,24.4,13.6,30.20,NW,315,7.3,8.9,63,0.00,,,0.00,VWS V13.01,2013-02-16 07:04:00,
2013-02-16 01:05:00,21.3,13.1,30.24,NW,322,8.8,10.3,70,0.00,,,0.00,VWS V13.01,2013-02-16 07:05:00,
2013-02-16 01:06:00,24.3,13.7,30.20,NW,315,7.9,7.9,63,0.00,,,0.00,VWS V13.01,2013-02-16 07:06:00,
2013-02-16 01:07:00,24.3,13.6,30.20,NW,312,7.2,7.8,63,0.00,,,0.00,VWS V13.01,2013-02-16 07:07:00,
2013-02-16 01:08:00,24.4,13.8,30.20,NW,318,7.1,7.6,64,0.00,,,0.00,VWS V13.01,2013-02-16 07:08:00,
2013-02-16 01:09:00,24.4,13.8,30.20,NW,326,8.9,9.5,64,0.00,,,0.00,VWS V13.01,2013-02-16 07:09:00,
2013-02-16 01:10:00,21.3,13.0,30.24,NW,318,7.9,10.8,70,0.00,,,0.00,VWS V13.01,2013-02-16 07:10:00,
2013-02-16 01:11:00,24.1,13.4,30.20,NW,312,7.1,9.1,63,0.00,,,0.00,VWS V13.01,2013-02-16 07:11:00,
2013-02-16 01:12:00,24.3,13.6,30.20,NW,319,8.0,8.0,63,0.00,,,0.00,VWS V13.01,2013-02-16 07:12:00,
2013-02-16 01:13:00,23.9,13.3,30.20,NW,315,6.1,7.1,63,0.00,,,0.00,VWS V13.01,2013-02-16 07:13:00,
2013-02-16 01:14:00,24.3,13.6,30.20,NW,325,5.2,6.2,63,0.00,,,0.00,VWS V13.01,2013-02-16 07:14:00,
2013-02-16 01:15:00,21.3,13.3,30.24,NW,326,10.2,11.6,71,0.00,,,0.00,VWS V13.01,2013-02-16 07:15:00,
2013-02-16 01:16:00,24.1,13.4,30.20,NW,318,6.1,7.7,63,0.00,,,0.00,VWS V13.01,2013-02-16 07:16:00,
2013-02-16 01:17:00,24.0,13.3,30.20,NNW,339,5.2,7.3,63,0.00,,,0.00,VWS V13.01,2013-02-16 07:17:00,
2013-02-16 01:18:00,24.2,13.4,30.20,NNW,335,7.1,8.6,63,0.00,,,0.00,VWS V13.01,2013-02-16 07:18:00,
2013-02-16 01:19:00,24.0,13.2,30.20,NW,318,5.8,7.1,63,0.00,,,0.00,VWS V13.01,2013-02-16 07:19:00,
2013-02-16 01:20:00,21.2,13.3,30.24,NW,323,8.6,8.6,71,0.00,,,0.00,VWS V13.01,2013-02-16 07:20:00,
2013-02-16 01:21:00,23.8,13.1,30.20,NNW,335,6.2,7.0,63,0.00,,,0.00,VWS V13.01,2013-02-16 07:21:00,
2013-02-16 01:22:00,24.0,13.4,30.20,NW,314,6.4,7.2,63,0.00,,,0.00,VWS V13.01,2013-02-16 07:22:00,
2013-02-16 01:23:00,24.2,13.5,30.20,NW,326,8.3,8.3,63,0.00,,,0.00,VWS V13.01,2013-02-16 07:23:00,
2013-02-16 01:24:00,24.1,13.3,30.20,NW,325,5.7,7.3,63,0.00,,,0.00,VWS V13.01,2013-02-16 07:24:00,
2013-02-16 01:25:00,21.1,13.3,30.24,NNW,336,12.3,12.5,71,0.00,,,0.00,VWS V13.01,2013-02-16 07:25:00,
2013-02-16 01:26:00,24.3,13.6,30.20,NW,325,7.6,8.4,63,0.00,,,0.00,VWS V13.01,2013-02-16 07:26:00,
2013-02-16 01:27:00,24.1,13.4,30.20,North,352,6.2,7.6,63,0.00,,,0.00,VWS V13.01,2013-02-16 07:27:00,
2013-02-16 01:28:00,24.2,13.5,30.20,NNW,336,7.0,9.7,63,0.00,,,0.00,VWS V13.01,2013-02-16 07:28:00,
2013-02-16 01:29:00,24.1,13.5,30.20,NNW,338,7.6,7.6,63,0.00,,,0.00,VWS V13.01,2013-02-16 07:29:00,
2013-02-16 01:30:00,20.9,12.9,30.24,North,349,10.4,13.8,71,0.00,,,0.00,VWS V13.01,2013-02-16 07:30:00,
2013-02-16 01:31:00,24.0,13.4,30.20,NNW,346,7.1,8.2,63,0.00,,,0.00,VWS V13.01,2013-02-16 07:31:00,
2013-02-16 01:32:00,23.9,13.4,30.20,North,350,6.8,8.6,64,0.00,,,0.00,VWS V13.01,2013-02-16 07:32:00,
2013-02-16 01:33:00,24.0,13.5,30.20,NNW,338,8.3,9.1,64,0.00,,,0.00,VWS V13.01,2013-02-16 07:33:00,
2013-02-16 01:34:00,23.7,13.1,30.20,North,3,7.8,9.5,64,0.00,,,0.00,VWS V13.01,2013-02-16 07:34:00,
2013-02-16 01:35:00,20.6,12.4,30.23,NNW,332,10.7,16.2,70,0.00,,,0.00,VWS V13.01,2013-02-16 07:35:00,
2013-02-16 01:36:00,24.1,13.4,30.20,NNW,339,8.1,9.9,63,0.00,,,0.00,VWS V13.01,2013-02-16 07:36:00,
2013-02-16 01:37:00,24.1,13.4,30.20,North,352,5.0,7.1,63,0.00,,,0.00,VWS V13.01,2013-02-16 07:37:00,
2013-02-16 01:38:00,24.3,13.7,30.20,North,350,5.3,5.7,63,0.00,,,0.00,VWS V13.01,2013-02-16 07:38:00,
2013-02-16 01:39:00,24.4,13.9,30.20,NNW,335,5.5,6.1,64,0.00,,,0.00,VWS V13.01,2013-02-16 07:39:00,
2013-02-16 01:40:00,20.6,11.7,30.23,NNW,345,12.9,14.4,68,0.00,,,0.00,VWS V13.01,2013-02-16 07:40:00,
2013-02-16 01:41:00,24.1,13.9,30.20,North,0,5.6,6.2,65,0.00,,,0.00,VWS V13.01,2013-02-16 07:41:00,
2013-02-16 01:42:00,24.4,14.3,30.21,North,354,5.8,6.0,65,0.00,,,0.00,VWS V13.01,2013-02-16 07:42:00,
2013-02-16 01:43:00,23.8,13.8,30.20,NNW,347,2.0,7.1,65,0.00,,,0.00,VWS V13.01,2013-02-16 07:43:00,
2013-02-16 01:44:00,23.9,13.9,30.21,NNW,340,7.0,8.8,65,0.00,,,0.00,VWS V13.01,2013-02-16 07:44:00,
2013-02-16 01:45:00,20.7,11.3,30.24,NW,318,11.3,12.9,66,0.00,,,0.00,VWS V13.01,2013-02-16 07:45:00,
2013-02-16 01:46:00,24.1,14.1,30.21,North,354,5.8,6.6,65,0.00,,,0.00,VWS V13.01,2013-02-16 07:46:00,
2013-02-16 01:47:00,23.9,14.2,30.21,North,4,6.2,6.2,66,0.00,,,0.00,VWS V13.01,2013-02-16 07:47:00,
2013-02-16 01:48:00,23.8,14.3,30.21,North,0,5.4,5.4,67,0.00,,,0.00,VWS V13.01,2013-02-16 07:48:00,
2013-02-16 01:49:00,23.7,14.3,30.21,NNE,15,4.7,6.1,67,0.00,,,0.00,VWS V13.01,2013-02-16 07:49:00,
2013-02-16 01:50:00,20.6,10.9,30.23,NNW,333,16.3,19.3,66,0.00,,,0.00,VWS V13.01,2013-02-16 07:50:00,
2013-02-16 01:51:00,24.0,14.5,30.21,NNE,17,5.5,7.5,67,0.00,,,0.00,VWS V13.01,2013-02-16 07:51:00,
2013-02-16 01:52:00,23.6,13.9,30.21,North,354,2.0,8.7,66,0.00,,,0.00,VWS V13.01,2013-02-16 07:52:00,
2013-02-16 01:53:00,23.2,13.5,30.21,NNE,24,8.5,8.5,66,0.00,,,0.00,VWS V13.01,2013-02-16 07:53:00,
2013-02-16 01:54:00,23.6,13.9,30.21,NNE,15,6.2,6.2,66,0.00,,,0.00,VWS V13.01,2013-02-16 07:54:00,
2013-02-16 01:55:00,20.5,9.9,30.23,NW,309,10.2,17.8,63,0.00,,,0.00,VWS V13.01,2013-02-16 07:55:00,
2013-02-16 01:56:00,23.6,13.8,30.21,NE,52,2.0,7.1,66,0.00,,,0.00,VWS V13.01,2013-02-16 07:56:00,
2013-02-16 01:57:00,23.6,13.9,30.21,North,11,5.4,6.6,66,0.00,,,0.00,VWS V13.01,2013-02-16 07:57:00,
2013-02-16 01:58:00,23.5,13.8,30.21,North,4,7.0,7.0,66,0.00,,,0.00,VWS V13.01,2013-02-16 07:58:00,
2013-02-16 01:59:00,23.7,13.8,30.21,NNE,20,5.1,6.7,65,0.00,,,0.00,VWS V13.01,2013-02-16 07:59:00,
2013-02-16 02:00:00,20.2,10.5,30.23,NW,326,7.4,10.5,65,0.00,,,0.00,VWS V13.01,2013-02-16 08:00:00,
2013-02-16 02:01:00,23.4,13.8,30.21,North,8,5.2,6.3,66,0.00,,,0.00,VWS V13.01,2013-02-16 08:01:00,
2013-02-16 02:02:00,23.4,13.8,30.21,NNE,25,6.2,6.5,66,0.00,,,0.00,VWS V13.01,2013-02-16 08:02:00,
2013-02-16 02:03:00,23.3,13.7,30.21,NNE,18,5.0,7.1,66,0.00,,,0.00,VWS V13.01,2013-02-16 08:03:00,
2013-02-16 02:04:00,23.3,13.6,30.21,NNE,28,5.2,7.2,66,0.00,,,0.00,VWS V13.01,2013-02-16 08:04:00,
2013-02-16 02:05:00,20.4,10.0,30.23,NNW,345,11.5,11.5,64,0.00,,,0.00,VWS V13.01,2013-02-16 08:05:00,
2013-02-16 02:06:00,23.5,14.1,30.21,NNW,346,7.0,8.4,67,0.00,,,0.00,VWS V13.01,2013-02-16 08:06:00,
2013-02-16 02:07:00,23.3,13.7,30.21,North,6,6.8,11.1,66,0.00,,,0.00,VWS V13.01,2013-02-16 08:07:00,
2013-02-16 02:08:00,23.1,13.6,30.21,North,8,5.5,7.5,67,0.00,,,0.00,VWS V13.01,2013-02-16 08:08:00,
2013-02-16 02:09:00,23.5,14.1,30.21,NNE,25,6.9,8.9,67,0.00,,,0.00,VWS V13.01,2013-02-16 08:09:00,
2013-02-16 02:10:00,20.1,10.4,30.23,NW,321,5.4,12.1,66,0.00,,,0.00,VWS V13.01,2013-02-16 08:10:00,
2013-02-16 02:11:00,23.2,13.6,30.21,North,4,6.1,7.6,66,0.00,,,0.00,VWS V13.01,2013-02-16 08:11:00,
2013-02-16 02:12:00,22.9,13.5,30.21,NE,51,5.8,6.0,67,0.00,,,0.00,VWS V13.01,2013-02-16 08:12:00,
2013-02-16 02:13:00,23.1,13.7,30.21,NE,45,5.3,7.1,67,0.00,,,0.00,VWS V13.01,2013-02-16 08:13:00,
2013-02-16 02:14:00,22.8,13.4,30.21,North,8,10.1,10.3,67,0.00,,,0.00,VWS V13.01,2013-02-16 08:14:00,
2013-02-16 02:15:00,19.9,10.1,30.23,NNW,343,11.9,13.9,65,0.00,,,0.00,VWS V13.01,2013-02-16 08:15:00,
2013-02-16 02:16:00,22.5,13.0,30.21,North,353,7.6,9.8,66,0.00,,,0.00,VWS V13.01,2013-02-16 08:16:00,
2013-02-16 02:17:00,22.9,13.4,30.21,NE,38,5.9,7.6,66,0.00,,,0.00,VWS V13.01,2013-02-16 08:17:00,
2013-02-16 02:18:00,22.7,13.1,30.21,NNE,20,8.2,9.1,66,0.00,,,0.00,VWS V13.01,2013-02-16 08:18:00,
2013-02-16 02:19:00,23.1,13.2,30.21,NE,56,6.5,11.1,65,0.00,,,0.00,VWS V13.01,2013-02-16 08:19:00,
2013-02-16 02:20:00,19.9,10.3,30.23,NNW,345,9.9,13.2,66,0.00,,,0.00,VWS V13.01,2013-02-16 08:20:00,
2013-02-16 02:21:00,22.7,13.2,30.21,North,1,6.3,8.6,66,0.00,,,0.00,VWS V13.01,2013-02-16 08:21:00,
2013-02-16 02:22:00,23.2,13.6,30.21,NNE,21,7.6,9.5,66,0.00,,,0.00,VWS V13.01,2013-02-16 08:22:00,
2013-02-16 02:23:00,22.9,13.2,30.21,NNE,21,7.2,9.6,66,0.00,,,0.00,VWS V13.01,2013-02-16 08:23:00,
2013-02-16 02:24:00,22.8,13.2,30.21,North,3,6.8,6.8,66,0.00,,,0.00,VWS V13.01,2013-02-16 08:24:00,
2013-02-16 02:25:00,19.7,10.1,30.23,NW,325,20.8,21.3,66,0.00,,,0.00,VWS V13.01,2013-02-16 08:25:00,
2013-02-16 02:26:00,23.1,13.3,30.21,NNW,345,7.5,7.6,66,0.00,,,0.00,VWS V13.01,2013-02-16 08:26:00,
2013-02-16 02:27:00,22.7,13.0,30.21,NNE,31,9.6,10.2,66,0.00,,,0.00,VWS V13.01,2013-02-16 08:27:00,
2013-02-16 02:28:00,22.8,13.1,30.21,North,3,10.3,10.9,66,0.00,,,0.00,VWS V13.01,2013-02-16 08:28:00,
2013-02-16 02:29:00,22.7,13.0,30.21,NNE,25,5.9,7.3,66,0.00,,,0.00,VWS V13.01,2013-02-16 08:29:00,
2013-02-16 02:30:00,19.4,10.1,30.23,NW,326,13.7,15.2,67,0.00,,,0.00,VWS V13.01,2013-02-16 08:30:00,
2013-02-16 02:31:00,22.7,13.1,30.21,NNE,18,8.0,8.7,66,0.00,,,0.00,VWS V13.01,2013-02-16 08:31:00,
2013-02-16 02:32:00,22.8,13.2,30.21,NNE,20,5.8,8.0,66,0.00,,,0.00,VWS V13.01,2013-02-16 08:32:00,
2013-02-16 02:33:00,22.7,13.1,30.21,NNE,18,6.7,8.1,66,0.00,,,0.00,VWS V13.01,2013-02-16 08:33:00,
2013-02-16 02:34:00,22.6,13.0,30.21,NNE,30,4.8,8.1,66,0.00,,,0.00,VWS V13.01,2013-02-16 08:34:00,
2013-02-16 02:35:00,19.5,10.5,30.23,NW,309,9.4,15.0,68,0.00,,,0.00,VWS V13.01,2013-02-16 08:35:00,
2013-02-16 02:36:00,22.9,13.4,30.21,North,353,4.5,5.8,66,0.00,,,0.00,VWS V13.01,2013-02-16 08:36:00,
2013-02-16 02:37:00,22.7,13.2,30.21,North,4,8.0,8.0,66,0.00,,,0.00,VWS V13.01,2013-02-16 08:37:00,
2013-02-16 02:38:00,22.5,12.8,30.21,NNE,24,7.3,9.9,66,0.00,,,0.00,VWS V13.01,2013-02-16 08:38:00,
2013-02-16 02:39:00,22.4,12.7,30.21,NNE,15,7.8,8.1,66,0.00,,,0.00,VWS V13.01,2013-02-16 08:39:00,
2013-02-16 02:40:00,19.4,10.8,30.23,NNW,329,9.6,13.5,69,0.00,,,0.00,VWS V13.01,2013-02-16 08:40:00,
2013-02-16 02:41:00,22.6,12.7,30.21,NE,42,5.5,8.4,65,0.00,,,0.00,VWS V13.01,2013-02-16 08:41:00,
2013-02-16 02:42:00,22.4,12.9,30.21,North,6,10.1,10.1,66,0.00,,,0.00,VWS V13.01,2013-02-16 08:42:00,
2013-02-16 02:43:00,22.3,12.4,30.21,NNE,21,7.9,10.9,65,0.00,,,0.00,VWS V13.01,2013-02-16 08:43:00,
2013-02-16 02:44:00,22.4,12.5,30.21,NNE,31,7.1,9.9,65,0.00,,,0.00,VWS V13.01,2013-02-16 08:44:00,
2013-02-16 02:45:00,19.6,11.1,30.23,NW,326,11.6,14.9,69,0.00,,,0.00,VWS V13.01,2013-02-16 08:45:00,
2013-02-16 02:46:00,22.3,12.5,30.21,NNE,30,7.3,7.3,66,0.00,,,0.00,VWS V13.01,2013-02-16 08:46:00,
2013-02-16 02:47:00,22.6,12.8,30.22,North,359,9.0,9.0,66,0.00,,,0.00,VWS V13.01,2013-02-16 08:47:00,
2013-02-16 02:48:00,22.5,12.7,30.22,North,7,8.4,9.4,66,0.00,,,0.00,VWS V13.01,2013-02-16 08:48:00,
2013-02-16 02:49:00,19.2,11.1,30.23,ENE,62,6.9,9.4,70,0.00,,,0.00,VWS V13.01,2013-02-16 08:49:00,
2013-02-16 02:50:00,22.5,12.7,30.22,North,10,8.1,9.8,65,0.00,,,0.00,VWS V13.01,2013-02-16 08:50:00,
2013-02-16 02:51:00,22.3,12.6,30.22,North,10,8.1,8.1,66,0.00,,,0.00,VWS V13.01,2013-02-16 08:51:00,
2013-02-16 02:52:00,22.5,12.8,30.22,North,1,6.6,7.0,66,0.00,,,0.00,VWS V13.01,2013-02-16 08:52:00,
2013-02-16 02:53:00,22.4,12.9,30.22,NNE,15,8.4,8.4,66,0.00,,,0.00,VWS V13.01,2013-02-16 08:53:00,
2013-02-16 02:54:00,19.4,11.3,30.23,North,350,9.3,10.2,70,0.00,,,0.00,VWS V13.01,2013-02-16 08:54:00,
2013-02-16 02:55:00,22.3,12.9,30.22,NNE,13,6.7,7.0,67,0.00,,,0.00,VWS V13.01,2013-02-16 08:55:00,
2013-02-16 02:56:00,22.5,13.1,30.22,ENE,59,4.4,6.6,67,0.00,,,0.00,VWS V13.01,2013-02-16 08:56:00,
2013-02-16 02:57:00,22.4,13.1,30.22,NNE,17,5.4,6.8,67,0.00,,,0.00,VWS V13.01,2013-02-16 08:57:00,
2013-02-16 02:58:00,22.3,13.1,30.22,North,359,5.6,6.5,67,0.00,,,0.00,VWS V13.01,2013-02-16 08:58:00,
2013-02-16 02:59:00,19.1,11.1,30.23,North,356,10.9,12.5,70,0.00,,,0.00,VWS V13.01,2013-02-16 08:59:00,
2013-02-16 03:00:00,22.4,12.9,30.22,NNE,13,6.9,7.0,66,0.00,,,0.00,VWS V13.01,2013-02-16 09:00:00,
2013-02-16 03:01:00,22.4,12.9,30.22,North,4,3.2,5.2,66,0.00,,,0.00,VWS V13.01,2013-02-16 09:01:00,
2013-02-16 03:02:00,22.1,12.8,30.22,North,356,2.0,5.2,67,0.00,,,0.00,VWS V13.01,2013-02-16 09:02:00,
2013-02-16 03:03:00,22.1,12.7,30.22,NE,35,0.0,3.3,67,0.00,,,0.00,VWS V13.01,2013-02-16 09:03:00,
2013-02-16 03:04:00,19.1,10.8,30.23,North,359,8.8,12.2,70,0.00,,,0.00,VWS V13.01,2013-02-16 09:04:00,
2013-02-16 03:05:00,21.7,12.5,30.22,NE,35,0.0,0.0,67,0.00,,,0.00,VWS V13.01,2013-02-16 09:05:00,
2013-02-16 03:06:00,22.2,13.0,30.22,NE,35,0.0,0.0,67,0.00,,,0.00,VWS V13.01,2013-02-16 09:06:00,
2013-02-16 03:07:00,21.8,12.5,30.22,NE,35,0.0,0.0,67,0.00,,,0.00,VWS V13.01,2013-02-16 09:07:00,
2013-02-16 03:08:00,22.0,12.8,30.22,NNE,25,5.0,6.3,67,0.00,,,0.00,VWS V13.01,2013-02-16 09:08:00,
2013-02-16 03:09:00,19.0,11.0,30.23,NNE,17,9.7,15.8,70,0.00,,,0.00,VWS V13.01,2013-02-16 09:09:00,
2013-02-16 03:10:00,21.9,12.8,30.22,NNE,17,5.0,6.8,67,0.00,,,0.00,VWS V13.01,2013-02-16 09:10:00,
2013-02-16 03:11:00,22.1,12.9,30.22,North,1,5.3,5.3,67,0.00,,,0.00,VWS V13.01,2013-02-16 09:11:00,
2013-02-16 03:12:00,22.0,13.0,30.22,NNE,17,4.7,5.1,68,0.00,,,0.00,VWS V13.01,2013-02-16 09:12:00,
2013-02-16 03:13:00,21.8,12.7,30.22,NNE,30,5.5,7.3,68,0.00,,,0.00,VWS V13.01,2013-02-16 09:13:00,
2013-02-16 03:14:00,18.9,10.6,30.22,NNW,336,16.7,16.7,70,0.00,,,0.00,VWS V13.01,2013-02-16 09:14:00,
2013-02-16 03:15:00,21.6,12.4,30.22,NNE,27,7.3,7.6,67,0.00,,,0.00,VWS V13.01,2013-02-16 09:15:00,
2013-02-16 03:16:00,21.8,12.8,30.22,NNE,28,5.9,5.9,68,0.00,,,0.00,VWS V13.01,2013-02-16 09:16:00,
2013-02-16 03:17:00,21.7,13.0,30.22,NNE,27,6.2,7.1,69,0.00,,,0.00,VWS V13.01,2013-02-16 09:17:00,
2013-02-16 03:18:00,21.6,12.9,30.21,NNE,30,7.0,8.0,69,0.00,,,0.00,VWS V13.01,2013-02-16 09:18:00,
2013-02-16 03:19:00,18.5,9.8,30.22,NNW,342,14.2,15.6,68,0.00,,,0.00,VWS V13.01,2013-02-16 09:19:00,
2013-02-16 03:20:00,21.5,12.7,30.21,NNE,32,5.2,5.9,68,0.00,,,0.00,VWS V13.01,2013-02-16 09:20:00,
2013-02-16 03:21:00,21.5,12.8,30.21,NNE,21,6.5,7.2,69,0.00,,,0.00,VWS V13.01,2013-02-16 09:21:00,
2013-02-16 03:22:00,21.7,13.1,30.21,NNE,17,7.5,7.8,69,0.00,,,0.00,VWS V13.01,2013-02-16 09:22:00,
2013-02-16 03:23:00,21.5,13.0,30.22,NE,44,6.6,6.8,69,0.00,,,0.00,VWS V13.01,2013-02-16 09:23:00,
2013-02-16 03:24:00,18.6,10.2,30.23,NNW,342,12.4,13.2,69,0.00,,,0.00,VWS V13.01,2013-02-16 09:24:00,
2013-02-16 03:25:00,21.4,12.9,30.21,NNE,31,5.0,7.6,69,0.00,,,0.00,VWS V13.01,2013-02-16 09:25:00,
2013-02-16 03:26:00,21.6,13.2,30.21,NE,41,6.8,8.0,70,0.00,,,0.00,VWS V13.01,2013-02-16 09:26:00,
2013-02-16 03:27:00,21.0,12.6,30.21,NNE,32,7.0,10.9,69,0.00,,,0.00,VWS V13.01,2013-02-16 09:27:00,
2013-02-16 03:28:00,21.3,12.8,30.21,NNE,32,6.2,9.6,69,0.00,,,0.00,VWS V13.01,2013-02-16 09:28:00,
2013-02-16 03:29:00,18.2,9.8,30.22,NW,322,13.5,13.6,69,0.00,,,0.00,VWS V13.01,2013-02-16 09:29:00,
2013-02-16 03:30:00,21.0,12.7,30.21,NNE,32,6.5,9.8,70,0.00,,,0.00,VWS V13.01,2013-02-16 09:30:00,
2013-02-16 03:31:00,21.3,12.9,30.21,NNE,14,5.5,8.4,70,0.00,,,0.00,VWS V13.01,2013-02-16 09:31:00,
2013-02-16 03:32:00,21.2,12.5,30.21,NNE,17,6.5,10.3,69,0.00,,,0.00,VWS V13.01,2013-02-16 09:32:00,
2013-02-16 03:33:00,21.3,12.6,30.21,NE,44,6.5,9.8,69,0.00,,,0.00,VWS V13.01,2013-02-16 09:33:00,
2013-02-16 03:34:00,18.4,9.5,30.22,NW,322,8.0,9.9,68,0.00,,,0.00,VWS V13.01,2013-02-16 09:34:00,
2013-02-16 03:35:00,21.3,12.8,30.21,NE,44,8.2,8.2,69,0.00,,,0.00,VWS V13.01,2013-02-16 09:35:00,
2013-02-16 03:36:00,21.2,12.5,30.21,NNE,25,6.8,8.6,69,0.00,,,0.00,VWS V13.01,2013-02-16 09:36:00,
2013-02-16 03:37:00,21.3,12.6,30.21,NE,56,5.5,7.5,68,0.00,,,0.00,VWS V13.01,2013-02-16 09:37:00,
2013-02-16 03:38:00,21.0,12.2,30.21,NNE,22,7.1,9.1,68,0.00,,,0.00,VWS V13.01,2013-02-16 09:38:00,
2013-02-16 03:39:00,17.9,9.1,30.22,NNW,328,7.5,10.0,68,0.00,,,0.00,VWS V13.01,2013-02-16 09:39:00,
2013-02-16 03:40:00,21.1,12.5,30.21,NE,53,4.3,7.3,69,0.00,,,0.00,VWS V13.01,2013-02-16 09:40:00,
2013-02-16 03:41:00,21.2,12.5,30.21,NE,34,9.4,9.4,68,0.00,,,0.00,VWS V13.01,2013-02-16 09:41:00,
2013-02-16 03:42:00,21.0,12.1,30.21,NNE,24,5.9,9.5,68,0.00,,,0.00,VWS V13.01,2013-02-16 09:42:00,
2013-02-16 03:43:00,21.2,12.3,30.21,NNE,30,6.6,8.2,68,0.00,,,0.00,VWS V13.01,2013-02-16 09:43:00,
2013-02-16 03:44:00,18.0,9.2,30.22,NNW,342,7.7,9.4,68,0.00,,,0.00,VWS V13.01,2013-02-16 09:44:00,
2013-02-16 03:45:00,21.2,12.3,30.21,NE,35,8.6,8.6,68,0.00,,,0.00,VWS V13.01,2013-02-16 09:45:00,
2013-02-16 03:46:00,21.2,12.3,30.21,NE,45,7.0,7.5,68,0.00,,,0.00,VWS V13.01,2013-02-16 09:46:00,
2013-02-16 03:47:00,21.2,12.3,30.21,NNE,31,7.1,8.5,68,0.00,,,0.00,VWS V13.01,2013-02-16 09:47:00,
2013-02-16 03:48:00,20.9,12.1,30.21,NNE,15,8.9,10.2,68,0.00,,,0.00,VWS V13.01,2013-02-16 09:48:00,
2013-02-16 03:49:00,17.9,9.0,30.23,NNW,328,11.3,13.0,68,0.00,,,0.00,VWS V13.01,2013-02-16 09:49:00,
2013-02-16 03:50:00,20.8,12.0,30.21,NE,38,5.6,8.1,68,0.00,,,0.00,VWS V13.01,2013-02-16 09:50:00,
2013-02-16 03:51:00,21.3,12.5,30.21,NE,34,6.2,7.6,68,0.00,,,0.00,VWS V13.01,2013-02-16 09:51:00,
2013-02-16 03:52:00,21.0,12.3,30.21,NE,46,6.0,6.5,68,0.00,,,0.00,VWS V13.01,2013-02-16 09:52:00,
2013-02-16 03:53:00,20.8,12.2,30.21,NNE,20,8.8,9.3,69,0.00,,,0.00,VWS V13.01,2013-02-16 09:53:00,
2013-02-16 03:54:00,17.6,8.9,30.23,North,349,10.6,15.7,68,0.00,,,0.00,VWS V13.01,2013-02-16 09:54:00,
2013-02-16 03:55:00,20.9,12.2,30.21,NNE,21,6.5,8.8,69,0.00,,,0.00,VWS V13.01,2013-02-16 09:55:00,
2013-02-16 03:56:00,20.7,12.0,30.21,North,7,5.6,6.6,69,0.00,,,0.00,VWS V13.01,2013-02-16 09:56:00,
2013-02-16 03:57:00,20.8,12.1,30.21,NE,39,5.8,6.8,69,0.00,,,0.00,VWS V13.01,2013-02-16 09:57:00,
2013-02-16 03:58:00,20.8,12.1,30.21,North,11,8.3,8.3,69,0.00,,,0.00,VWS V13.01,2013-02-16 09:58:00,
2013-02-16 03:59:00,17.6,9.1,30.23,NNW,340,10.7,12.1,69,0.00,,,0.00,VWS V13.01,2013-02-16 09:59:00,
2013-02-16 04:00:00,20.6,11.9,30.20,NNE,25,4.8,7.0,68,0.00,,,0.00,VWS V13.01,2013-02-16 10:00:00,
2013-02-16 04:01:00,20.5,11.8,30.21,NNE,25,5.4,6.2,68,0.00,,,0.00,VWS V13.01,2013-02-16 10:01:00,
2013-02-16 04:02:00,20.9,12.2,30.20,North,11,8.3,8.3,68,0.00,,,0.00,VWS V13.01,2013-02-16 10:02:00,
2013-02-16 04:03:00,21.0,12.2,30.20,NNE,32,6.2,7.7,68,0.00,,,0.00,VWS V13.01,2013-02-16 10:03:00,
2013-02-16 04:04:00,17.4,9.1,30.23,North,359,6.9,10.3,69,0.00,,,0.00,VWS V13.01,2013-02-16 10:04:00,
2013-02-16 04:05:00,20.8,12.0,30.20,NNE,30,5.7,6.2,68,0.00,,,0.00,VWS V13.01,2013-02-16 10:05:00,
2013-02-16 04:06:00,20.4,11.6,30.20,NNE,21,5.3,5.8,68,0.00,,,0.00,VWS V13.01,2013-02-16 10:06:00,
2013-02-16 04:07:00,21.0,12.3,30.20,NE,42,5.8,6.5,68,0.00,,,0.00,VWS V13.01,2013-02-16 10:07:00,
2013-02-16 04:08:00,20.6,11.9,30.21,NE,44,5.0,5.7,68,0.00,,,0.00,VWS V13.01,2013-02-16 10:08:00,
2013-02-16 04:09:00,17.8,9.9,30.23,NNW,332,9.8,13.2,70,0.00,,,0.00,VWS V13.01,2013-02-16 10:09:00,
2013-02-16 04:10:00,20.6,12.0,30.20,NNE,24,6.8,7.8,69,0.00,,,0.00,VWS V13.01,2013-02-16 10:10:00,
2013-02-16 04:11:00,20.6,12.0,30.20,NE,41,5.2,6.5,69,0.00,,,0.00,VWS V13.01,2013-02-16 10:11:00,
2013-02-16 04:12:00,20.5,12.0,30.21,NE,34,4.8,5.2,69,0.00,,,0.00,VWS V13.01,2013-02-16 10:12:00,
2013-02-16 04:13:00,20.6,12.1,30.20,NE,46,2.0,6.8,69,0.00,,,0.00,VWS V13.01,2013-02-16 10:13:00,
2013-02-16 04:14:00,17.6,9.9,30.23,NNW,336,8.0,11.2,71,0.00,,,0.00,VWS V13.01,2013-02-16 10:14:00,
2013-02-16 04:15:00,20.2,11.7,30.20,NE,44,2.0,6.0,69,0.00,,,0.00,VWS V13.01,2013-02-16 10:15:00,
2013-02-16 04:16:00,20.1,11.6,30.20,NE,41,4.9,6.2,69,0.00,,,0.00,VWS V13.01,2013-02-16 10:16:00,
2013-02-16 04:17:00,20.4,11.9,30.20,NNE,25,5.2,6.5,69,0.00,,,0.00,VWS V13.01,2013-02-16 10:17:00,
2013-02-16 04:18:00,20.3,11.9,30.20,NE,52,2.0,4.9,69,0.00,,,0.00,VWS V13.01,2013-02-16 10:18:00,
2013-02-16 04:19:00,17.2,9.6,30.23,NNW,332,12.6,13.5,72,0.00,,,0.00,VWS V13.01,2013-02-16 10:19:00,
2013-02-16 04:20:00,20.1,11.7,30.20,NE,42,0.0,0.0,69,0.00,,,0.00,VWS V13.01,2013-02-16 10:20:00,
2013-02-16 04:21:00,20.1,11.6,30.20,NE,42,0.0,0.0,69,0.00,,,0.00,VWS V13.01,2013-02-16 10:21:00,
2013-02-16 04:22:00,20.2,11.8,30.20,NE,42,0.0,0.0,69,0.00,,,0.00,VWS V13.01,2013-02-16 10:22:00,
2013-02-16 04:23:00,20.2,11.8,30.21,NE,42,0.0,0.0,70,0.00,,,0.00,VWS V13.01,2013-02-16 10:23:00,
2013-02-16 04:24:00,17.2,9.5,30.23,NNW,329,9.5,12.5,71,0.00,,,0.00,VWS V13.01,2013-02-16 10:24:00,
2013-02-16 04:25:00,20.0,11.6,30.21,NE,42,0.0,0.0,69,0.00,,,0.00,VWS V13.01,2013-02-16 10:25:00,
2013-02-16 04:26:00,20.1,11.7,30.21,NE,42,0.0,0.0,69,0.00,,,0.00,VWS V13.01,2013-02-16 10:26:00,
2013-02-16 04:27:00,20.1,11.6,30.21,NE,42,0.0,0.0,69,0.00,,,0.00,VWS V13.01,2013-02-16 10:27:00,
2013-02-16 04:28:00,20.0,11.5,30.21,NE,42,0.0,0.0,69,0.00,,,0.00,VWS V13.01,2013-02-16 10:28:00,
2013-02-16 04:29:00,17.0,8.9,30.23,NNW,330,6.8,8.6,70,0.00,,,0.00,VWS V13.01,2013-02-16 10:29:00,
2013-02-16 04:30:00,19.8,11.6,30.21,ENE,63,13.8,15.4,70,0.00,,,0.00,VWS V13.01,2013-02-16 10:30:00,
2013-02-16 04:31:00,19.9,12.2,30.21,ENE,68,11.5,14.4,72,0.00,,,0.00,VWS V13.01,2013-02-16 10:31:00,
2013-02-16 04:32:00,19.7,12.4,30.21,ENE,66,12.9,14.8,73,0.00,,,0.00,VWS V13.01,2013-02-16 10:32:00,
2013-02-16 04:33:00,19.5,12.4,30.21,East,80,8.8,11.1,73,0.00,,,0.00,VWS V13.01,2013-02-16 10:33:00,
2013-02-16 04:34:00,17.1,9.5,30.23,NW,321,7.2,10.1,72,0.00,,,0.00,VWS V13.01,2013-02-16 10:34:00,
2013-02-16 04:35:00,19.5,12.7,30.21,ENE,66,10.4,11.2,74,0.00,,,0.00,VWS V13.01,2013-02-16 10:35:00,
2013-02-16 04:36:00,19.4,12.6,30.21,NE,53,10.2,11.2,74,0.00,,,0.00,VWS V13.01,2013-02-16 10:36:00,
2013-02-16 04:37:00,19.3,12.8,30.21,NE,56,9.1,9.8,75,0.00,,,0.00,VWS V13.01,2013-02-16 10:37:00,
2013-02-16 04:38:00,19.0,12.8,30.21,ENE,75,11.6,12.0,76,0.00,,,0.00,VWS V13.01,2013-02-16 10:38:00,
2013-02-16 04:39:00,16.8,8.9,30.23,North,349,6.1,10.5,71,0.00,,,0.00,VWS V13.01,2013-02-16 10:39:00,
2013-02-16 04:40:00,18.8,12.5,30.21,ENE,72,6.8,13.8,76,0.00,,,0.00,VWS V13.01,2013-02-16 10:40:00,
2013-02-16 04:41:00,18.7,12.6,30.21,East,80,13.2,13.2,77,0.00,,,0.00,VWS V13.01,2013-02-16 10:41:00,
2013-02-16 04:42:00,18.5,12.4,30.21,NE,53,10.1,12.8,77,0.00,,,0.00,VWS V13.01,2013-02-16 10:42:00,
2013-02-16 04:43:00,18.4,12.2,30.21,ENE,76,12.1,13.0,76,0.00,,,0.00,VWS V13.01,2013-02-16 10:43:00,
2013-02-16 04:44:00,16.8,9.3,30.23,North,353,6.3,8.9,72,0.00,,,0.00,VWS V13.01,2013-02-16 10:44:00,
2013-02-16 04:45:00,18.5,12.6,30.21,ENE,75,10.7,12.6,77,0.00,,,0.00,VWS V13.01,2013-02-16 10:45:00,
2013-02-16 04:46:00,18.6,12.7,30.21,ENE,60,5.3,10.3,77,0.00,,,0.00,VWS V13.01,2013-02-16 10:46:00,
2013-02-16 04:47:00,18.4,12.6,30.21,ENE,69,9.9,11.2,78,0.00,,,0.00,VWS V13.01,2013-02-16 10:47:00,
2013-02-16 04:48:00,18.2,12.4,30.21,ENE,68,9.4,10.3,78,0.00,,,0.00,VWS V13.01,2013-02-16 10:48:00,
2013-02-16 04:49:00,16.8,9.2,30.23,NNW,335,5.2,6.5,72,0.00,,,0.00,VWS V13.01,2013-02-16 10:49:00,
2013-02-16 04:50:00,18.0,12.4,30.21,ENE,73,10.3,11.1,78,0.00,,,0.00,VWS V13.01,2013-02-16 10:50:00,
2013-02-16 04:51:00,18.2,12.5,30.21,ENE,60,10.1,12.1,78,0.00,,,0.00,VWS V13.01,2013-02-16 10:51:00,
2013-02-16 04:52:00,17.9,12.2,30.21,ENE,72,9.1,11.3,78,0.00,,,0.00,VWS V13.01,2013-02-16 10:52:00,
2013-02-16 04:53:00,17.7,12.1,30.21,East,87,9.9,11.2,78,0.00,,,0.00,VWS V13.01,2013-02-16 10:53:00,
2013-02-16 04:54:00,16.7,9.1,30.23,NW,321,2.0,5.8,72,0.00,,,0.00,VWS V13.01,2013-02-16 10:54:00,
2013-02-16 04:55:00,17.6,11.6,30.21,NE,53,10.6,14.7,77,0.00,,,0.00,VWS V13.01,2013-02-16 10:55:00,
2013-02-16 04:56:00,17.6,11.7,30.21,ENE,75,11.4,12.5,77,0.00,,,0.00,VWS V13.01,2013-02-16 10:56:00,
2013-02-16 04:57:00,17.5,11.5,30.21,East,79,11.9,13.7,77,0.00,,,0.00,VWS V13.01,2013-02-16 10:57:00,
2013-02-16 04:58:00,17.2,11.3,30.21,NE,48,10.0,12.6,77,0.00,,,0.00,VWS V13.01,2013-02-16 10:58:00,
2013-02-16 04:59:00,16.7,9.3,30.23,North,8,6.5,10.9,72,0.00,,,0.00,VWS V13.01,2013-02-16 10:59:00,
2013-02-16 05:00:00,17.6,11.6,30.21,ENE,69,9.0,11.5,77,0.00,,,0.00,VWS V13.01,2013-02-16 11:00:00,
2013-02-16 05:01:00,17.5,11.4,30.21,East,80,9.8,10.6,77,0.00,,,0.00,VWS V13.01,2013-02-16 11:01:00,
2013-02-16 05:02:00,17.3,11.3,30.21,ENE,72,7.5,10.3,77,0.00,,,0.00,VWS V13.01,2013-02-16 11:02:00,
2013-02-16 05:03:00,17.2,11.3,30.21,ENE,72,10.0,10.0,77,0.00,,,0.00,VWS V13.01,2013-02-16 11:03:00,
2013-02-16 05:04:00,16.7,9.2,30.23,NW,322,9.1,9.9,72,0.00,,,0.00,VWS V13.01,2013-02-16 11:04:00,
2013-02-16 05:05:00,17.6,11.6,30.21,East,83,9.4,10.7,77,0.00,,,0.00,VWS V13.01,2013-02-16 11:05:00,
2013-02-16 05:06:00,16.9,10.9,30.21,ENE,70,9.8,11.0,77,0.00,,,0.00,VWS V13.01,2013-02-16 11:06:00,
2013-02-16 05:07:00,17.5,11.4,30.21,ENE,73,8.0,10.0,77,0.00,,,0.00,VWS V13.01,2013-02-16 11:07:00,
2013-02-16 05:08:00,17.1,11.1,30.21,ENE,73,11.4,11.4,77,0.00,,,0.00,VWS V13.01,2013-02-16 11:08:00,
2013-02-16 05:09:00,16.7,9.3,30.23,NNW,335,9.1,9.3,72,0.00,,,0.00,VWS V13.01,2013-02-16 11:09:00,
2013-02-16 05:10:00,17.2,11.3,30.21,ENE,65,7.9,9.4,77,0.00,,,0.00,VWS V13.01,2013-02-16 11:10:00,
2013-02-16 05:11:00,17.3,11.3,30.21,ENE,65,10.0,11.0,77,0.00,,,0.00,VWS V13.01,2013-02-16 11:11:00,
2013-02-16 05:12:00,17.0,11.1,30.21,ENE,65,9.4,9.4,77,0.00,,,0.00,VWS V13.01,2013-02-16 11:12:00,
2013-02-16 05:13:00,17.4,11.6,30.21,East,80,11.6,12.4,77,0.00,,,0.00,VWS V13.01,2013-02-16 11:13:00,
2013-02-16 05:14:00,16.3,9.3,30.23,NW,322,6.6,8.8,73,0.00,,,0.00,VWS V13.01,2013-02-16 11:14:00,
2013-02-16 05:15:00,17.0,11.1,30.21,ENE,66,8.6,11.6,77,0.00,,,0.00,VWS V13.01,2013-02-16 11:15:00,
2013-02-16 05:16:00,17.2,11.3,30.21,NE,56,10.6,11.5,77,0.00,,,0.00,VWS V13.01,2013-02-16 11:16:00,
2013-02-16 05:17:00,17.1,11.3,30.21,ENE,72,9.3,10.2,77,0.00,,,0.00,VWS V13.01,2013-02-16 11:17:00,
2013-02-16 05:18:00,17.1,11.2,30.21,ENE,66,9.4,10.1,77,0.00,,,0.00,VWS V13.01,2013-02-16 11:18:00,
2013-02-16 05:19:00,16.4,9.3,30.23,NW,307,10.1,14.2,73,0.00,,,0.00,VWS V13.01,2013-02-16 11:19:00,
2013-02-16 05:20:00,17.3,11.3,30.21,ENE,73,7.8,9.1,77,0.00,,,0.00,VWS V13.01,2013-02-16 11:20:00,
2013-02-16 05:21:00,16.9,10.9,30.21,ENE,65,7.6,8.9,77,0.00,,,0.00,VWS V13.01,2013-02-16 11:21:00,
2013-02-16 05:22:00,16.7,10.8,30.21,ENE,73,7.5,9.1,77,0.00,,,0.00,VWS V13.01,2013-02-16 11:22:00,
2013-02-16 05:23:00,16.8,10.8,30.21,ENE,66,4.6,6.8,77,0.00,,,0.00,VWS V13.01,2013-02-16 11:23:00,
2013-02-16 05:24:00,16.5,9.1,30.23,NW,309,4.9,7.8,72,0.00,,,0.00,VWS V13.01,2013-02-16 11:24:00,
2013-02-16 05:25:00,16.9,10.9,30.21,ENE,68,8.6,9.7,77,0.00,,,0.00,VWS V13.01,2013-02-16 11:25:00,
2013-02-16 05:26:00,16.7,10.7,30.21,ENE,69,9.3,10.1,77,0.00,,,0.00,VWS V13.01,2013-02-16 11:26:00,
2013-02-16 05:27:00,16.6,10.5,30.21,ENE,66,8.5,9.3,76,0.00,,,0.00,VWS V13.01,2013-02-16 11:27:00,
2013-02-16 05:28:00,16.8,10.7,30.21,East,80,6.8,8.8,77,0.00,,,0.00,VWS V13.01,2013-02-16 11:28:00,
2013-02-16 05:29:00,16.6,9.2,30.23,NNW,333,7.5,8.5,72,0.00,,,0.00,VWS V13.01,2013-02-16 11:29:00,
2013-02-16 05:30:00,16.7,10.8,30.21,ENE,66,6.3,7.3,77,0.00,,,0.00,VWS V13.01,2013-02-16 11:30:00,
2013-02-16 05:31:00,16.2,10.3,30.21,ENE,68,7.4,10.2,77,0.00,,,0.00,VWS V13.01,2013-02-16 11:31:00,
2013-02-16 05:32:00,16.7,10.7,30.21,ENE,76,7.9,8.1,77,0.00,,,0.00,VWS V13.01,2013-02-16 11:32:00,
2013-02-16 05:33:00,16.6,10.6,30.21,ENE,63,6.2,8.0,77,0.00,,,0.00,VWS V13.01,2013-02-16 11:33:00,
2013-02-16 05:34:00,16.4,9.2,30.23,NNW,330,10.1,11.0,73,0.00,,,0.00,VWS V13.01,2013-02-16 11:34:00,
2013-02-16 05:35:00,16.5,10.5,30.21,ENE,68,6.3,8.1,77,0.00,,,0.00,VWS V13.01,2013-02-16 11:35:00,
2013-02-16 05:36:00,16.4,10.4,30.21,ENE,77,8.4,8.5,77,0.00,,,0.00,VWS V13.01,2013-02-16 11:36:00,
2013-02-16 05:37:00,16.2,10.2,30.21,East,84,6.5,8.3,77,0.00,,,0.00,VWS V13.01,2013-02-16 11:37:00,
2013-02-16 05:38:00,16.3,10.3,30.21,ENE,65,5.5,8.1,77,0.00,,,0.00,VWS V13.01,2013-02-16 11:38:00,
2013-02-16 05:39:00,16.3,9.0,30.23,NW,322,11.7,11.7,72,0.00,,,0.00,VWS V13.01,2013-02-16 11:39:00,
2013-02-16 05:40:00,16.6,10.7,30.21,ENE,75,6.3,7.4,77,0.00,,,0.00,VWS V13.01,2013-02-16 11:40:00,
2013-02-16 05:41:00,16.3,10.3,30.21,ENE,76,6.4,7.0,77,0.00,,,0.00,VWS V13.01,2013-02-16 11:41:00,
2013-02-16 05:42:00,16.4,10.6,30.21,ENE,59,7.1,7.2,77,0.00,,,0.00,VWS V13.01,2013-02-16 11:42:00,
2013-02-16 05:43:00,16.4,10.5,30.21,ENE,72,6.6,7.4,77,0.00,,,0.00,VWS V13.01,2013-02-16 11:43:00,
2013-02-16 05:44:00,16.1,9.1,30.23,NW,311,9.9,9.9,73,0.00,,,0.00,VWS V13.01,2013-02-16 11:44:00,
2013-02-16 05:45:00,16.2,10.4,30.21,East,82,6.2,8.0,77,0.00,,,0.00,VWS V13.01,2013-02-16 11:45:00,
2013-02-16 05:46:00,16.4,10.6,30.21,ENE,59,6.8,7.6,77,0.00,,,0.00,VWS V13.01,2013-02-16 11:46:00,
2013-02-16 05:49:00,16.5,9.3,30.23,NW,318,7.0,10.2,73,0.00,,,0.00,VWS V13.01,2013-02-16 11:49:00,
2013-02-16 05:54:00,16.0,8.7,30.23,NW,325,8.7,9.8,72,0.00,,,0.00,VWS V13.01,2013-02-16 11:54:00,
2013-02-16 05:59:00,15.9,8.7,30.23,NW,315,7.9,8.7,73,0.00,,,0.00,VWS V13.01,2013-02-16 11:59:00,
2013-02-16 06:04:00,16.0,8.9,30.23,NNW,329,10.5,11.1,73,0.00,,,0.00,VWS V13.01,2013-02-16 12:04:00,
2013-02-16 06:09:00,15.9,8.8,30.23,NW,314,8.4,8.9,73,0.00,,,0.00,VWS V13.01,2013-02-16 12:09:00,
2013-02-16 06:14:00,15.9,8.9,30.24,NW,323,7.6,8.3,73,0.00,,,0.00,VWS V13.01,2013-02-16 12:14:00,
2013-02-16 06:19:00,15.7,9.0,30.24,NNW,330,5.7,6.5,74,0.00,,,0.00,VWS V13.01,2013-02-16 12:19:00,
2013-02-16 06:24:00,15.6,8.8,30.24,NW,305,6.4,6.6,74,0.00,,,0.00,VWS V13.01,2013-02-16 12:24:00,
2013-02-16 06:29:00,15.6,8.8,30.24,NW,319,7.1,7.8,74,0.00,,,0.00,VWS V13.01,2013-02-16 12:29:00,
2013-02-16 06:34:00,15.3,8.4,30.24,WNW,292,8.0,8.8,74,0.00,,,0.00,VWS V13.01,2013-02-16 12:34:00,
2013-02-16 06:39:00,15.1,8.4,30.24,WNW,300,5.8,7.1,74,0.00,,,0.00,VWS V13.01,2013-02-16 12:39:00,
2013-02-16 06:44:00,15.0,8.4,30.24,NW,315,7.0,7.0,74,0.00,,,0.00,VWS V13.01,2013-02-16 12:44:00,
2013-02-16 06:49:00,15.0,8.6,30.24,NW,308,6.8,7.4,75,0.00,,,0.00,VWS V13.01,2013-02-16 12:49:00,
2013-02-16 06:54:00,14.8,8.7,30.25,NW,309,9.6,9.6,76,0.00,,,0.00,VWS V13.01,2013-02-16 12:54:00,
2013-02-16 06:59:00,15.1,8.8,30.25,WNW,297,6.6,7.7,76,0.00,,,0.00,VWS V13.01,2013-02-16 12:59:00,
2013-02-16 07:04:00,14.9,8.7,30.25,WNW,294,7.3,8.7,76,0.00,,,0.00,VWS V13.01,2013-02-16 13:04:00,
2013-02-16 07:09:00,14.9,8.7,30.25,WNW,302,8.5,9.7,76,0.00,,,0.00,VWS V13.01,2013-02-16 13:09:00,
2013-02-16 07:14:00,15.3,8.9,30.25,NW,305,6.8,8.1,75,0.00,,,0.00,VWS V13.01,2013-02-16 13:14:00,
2013-02-16 07:19:00,15.4,9.1,30.25,NW,319,9.8,10.1,76,0.00,,,0.00,VWS V13.01,2013-02-16 13:19:00,
2013-02-16 07:24:00,15.9,9.4,30.25,NW,311,9.2,11.1,75,0.00,,,0.00,VWS V13.01,2013-02-16 13:24:00,
2013-02-16 07:29:00,15.6,9.1,30.25,NW,314,9.5,9.5,75,0.00,,,0.00,VWS V13.01,2013-02-16 13:29:00,
2013-02-16 07:34:00,16.2,9.5,30.25,WNW,292,7.8,9.6,74,0.00,,,0.00,VWS V13.01,2013-02-16 13:34:00,
2013-02-16 07:39:00,16.2,9.4,30.26,West,281,8.0,11.6,74,0.00,,,0.00,VWS V13.01,2013-02-16 13:39:00,
2013-02-16 07:44:00,16.1,8.9,30.26,NW,312,8.0,11.4,73,0.00,,,0.00,VWS V13.01,2013-02-16 13:44:00,
2013-02-16 07:49:00,16.9,9.7,30.25,WNW,302,10.1,10.9,73,0.00,,,0.00,VWS V13.01,2013-02-16 13:49:00,
2013-02-16 07:54:00,17.0,9.7,30.26,WNW,301,10.7,11.1,72,0.00,,,0.00,VWS V13.01,2013-02-16 13:54:00,
2013-02-16 07:59:00,16.9,9.7,30.25,NW,309,8.5,11.2,73,0.00,,,0.00,VWS V13.01,2013-02-16 13:59:00,
2013-02-16 08:04:00,17.1,9.5,30.26,WNW,294,11.1,12.8,72,0.00,,,0.00,VWS V13.01,2013-02-16 14:04:00,
2013-02-16 08:09:00,17.7,9.9,30.26,NNW,332,10.3,12.5,71,0.00,,,0.00,VWS V13.01,2013-02-16 14:09:00,
2013-02-16 08:14:00,17.3,9.1,30.26,NW,321,9.2,11.9,70,0.00,,,0.00,VWS V13.01,2013-02-16 14:14:00,
2013-02-16 08:19:00,17.1,8.8,30.26,NW,321,12.6,13.2,69,0.00,,,0.00,VWS V13.01,2013-02-16 14:19:00,
2013-02-16 08:24:00,18.2,9.5,30.26,NW,307,12.1,12.5,68,0.00,,,0.00,VWS V13.01,2013-02-16 14:24:00,
2013-02-16 08:29:00,17.9,8.9,30.26,NW,318,9.8,11.2,67,0.00,,,0.00,VWS V13.01,2013-02-16 14:29:00,
2013-02-16 08:34:00,18.7,9.8,30.26,WNW,291,10.6,14.7,68,0.00,,,0.00,VWS V13.01,2013-02-16 14:34:00,
2013-02-16 08:39:00,18.9,9.3,30.26,West,267,8.1,9.3,66,0.00,,,0.00,VWS V13.01,2013-02-16 14:39:00,
2013-02-16 08:44:00,18.9,9.3,30.26,NW,316,10.8,11.6,66,0.00,,,0.00,VWS V13.01,2013-02-16 14:44:00,
2013-02-16 08:49:00,19.2,9.6,30.26,WNW,290,11.8,13.9,66,0.00,,,0.00,VWS V13.01,2013-02-16 14:49:00,
2013-02-16 08:54:00,19.9,9.1,30.26,NW,312,10.6,10.6,62,0.00,,,0.00,VWS V13.01,2013-02-16 14:54:00,
2013-02-16 08:59:00,20.0,9.7,30.26,WNW,288,8.6,11.9,64,0.00,,,0.00,VWS V13.01,2013-02-16 14:59:00,
2013-02-16 09:04:00,20.3,8.8,30.26,NW,318,7.7,9.3,60,0.00,,,0.00,VWS V13.01,2013-02-16 15:04:00,
2013-02-16 09:09:00,20.6,8.9,30.26,WNW,294,11.4,14.7,60,0.00,,,0.00,VWS V13.01,2013-02-16 15:09:00,
2013-02-16 09:14:00,20.7,8.3,30.25,WNW,300,11.7,15.3,58,0.00,,,0.00,VWS V13.01,2013-02-16 15:14:00,
2013-02-16 09:19:00,21.2,8.4,30.25,NW,314,7.5,9.4,57,0.00,,,0.00,VWS V13.01,2013-02-16 15:19:00,
2013-02-16 09:24:00,21.5,8.8,30.25,WNW,294,6.3,11.6,57,0.00,,,0.00,VWS V13.01,2013-02-16 15:24:00,
2013-02-16 09:29:00,21.6,8.1,30.25,WNW,302,9.5,13.7,55,0.00,,,0.00,VWS V13.01,2013-02-16 15:29:00,
2013-02-16 09:34:00,22.1,8.3,30.26,WNW,297,8.9,11.3,55,0.00,,,0.00,VWS V13.01,2013-02-16 15:34:00,
2013-02-16 09:39:00,22.6,8.6,30.26,WNW,300,11.5,11.8,54,0.00,,,0.00,VWS V13.01,2013-02-16 15:39:00,
2013-02-16 09:44:00,22.3,8.6,30.26,NW,305,12.8,14.7,55,0.00,,,0.00,VWS V13.01,2013-02-16 15:44:00,
2013-02-16 09:49:00,22.5,7.7,30.26,NW,312,9.6,12.6,52,0.00,,,0.00,VWS V13.01,2013-02-16 15:49:00,
2013-02-16 09:54:00,22.7,8.0,30.26,WNW,284,13.9,16.0,53,0.00,,,0.00,VWS V13.01,2013-02-16 15:54:00,
2013-02-16 09:59:00,23.0,8.2,30.25,WNW,288,10.3,11.2,52,0.00,,,0.00,VWS V13.01,2013-02-16 15:59:00,
2013-02-16 10:04:00,23.0,8.4,30.25,WNW,294,7.3,9.4,53,0.00,,,0.00,VWS V13.01,2013-02-16 16:04:00,
2013-02-16 10:09:00,23.2,7.7,30.25,NW,321,11.1,13.4,51,0.00,,,0.00,VWS V13.01,2013-02-16 16:09:00,
2013-02-16 10:14:00,23.2,8.0,30.25,NW,311,10.4,14.4,52,0.00,,,0.00,VWS V13.01,2013-02-16 16:14:00,
2013-02-16 10:19:00,23.5,7.9,30.25,WNW,298,12.2,12.2,51,0.00,,,0.00,VWS V13.01,2013-02-16 16:19:00,
2013-02-16 10:24:00,23.7,7.6,30.25,NW,321,13.6,17.5,50,0.00,,,0.00,VWS V13.01,2013-02-16 16:24:00,
2013-02-16 10:29:00,23.6,7.5,30.25,WNW,302,12.5,12.5,50,0.00,,,0.00,VWS V13.01,2013-02-16 16:29:00,
2013-02-16 10:34:00,23.7,7.3,30.25,NW,309,14.3,15.2,49,0.00,,,0.00,VWS V13.01,2013-02-16 16:34:00,
2013-02-16 10:39:00,23.6,8.5,30.25,WNW,291,14.2,16.6,52,0.00,,,0.00,VWS V13.01,2013-02-16 16:39:00,
2013-02-16 10:44:00,23.7,7.8,30.25,WNW,288,17.6,18.5,50,0.00,,,0.00,VWS V13.01,2013-02-16 16:44:00,
2013-02-16 10:49:00,23.7,7.9,30.25,NW,314,10.7,15.9,50,0.00,,,0.00,VWS V13.01,2013-02-16 16:49:00,
2013-02-16 10:54:00,24.2,8.0,30.25,WNW,295,9.1,14.2,49,0.00,,,0.00,VWS V13.01,2013-02-16 16:54:00,
2013-02-16 10:59:00,24.0,7.6,30.25,NW,314,10.9,14.4,49,0.00,,,0.00,VWS V13.01,2013-02-16 16:59:00,
2013-02-16 11:04:00,24.2,8.2,30.25,WNW,300,15.3,15.8,50,0.00,,,0.00,VWS V13.01,2013-02-16 17:04:00,
2013-02-16 11:09:00,24.6,9.3,30.24,West,281,11.2,13.3,52,0.00,,,0.00,VWS V13.01,2013-02-16 17:09:00,
2013-02-16 11:14:00,24.4,8.1,30.24,WSW,250,2.0,12.8,49,0.00,,,0.00,VWS V13.01,2013-02-16 17:14:00,
2013-02-16 11:19:00,24.8,9.2,30.24,WNW,294,11.9,14.4,51,0.00,,,0.00,VWS V13.01,2013-02-16 17:19:00,
2013-02-16 11:24:00,25.2,9.8,30.24,WNW,302,16.4,23.4,51,0.00,,,0.00,VWS V13.01,2013-02-16 17:24:00,
2013-02-16 11:29:00,25.1,10.4,30.24,NW,304,13.9,18.1,53,0.00,,,0.00,VWS V13.01,2013-02-16 17:29:00,
2013-02-16 11:34:00,25.0,9.7,30.23,WNW,297,12.2,16.2,52,0.00,,,0.00,VWS V13.01,2013-02-16 17:34:00,
2013-02-16 11:39:00,25.5,9.3,30.23,NW,323,14.3,15.1,50,0.00,,,0.00,VWS V13.01,2013-02-16 17:39:00,
2013-02-16 11:44:00,25.3,9.7,30.23,NW,318,12.4,16.5,51,0.00,,,0.00,VWS V13.01,2013-02-16 17:44:00,
2013-02-16 11:49:00,25.7,10.1,30.23,WNW,300,9.5,16.6,51,0.00,,,0.00,VWS V13.01,2013-02-16 17:49:00,
2013-02-16 11:54:00,25.9,9.7,30.23,West,281,10.7,15.2,50,0.00,,,0.00,VWS V13.01,2013-02-16 17:54:00,
2013-02-16 11:59:00,26.0,9.6,30.22,WNW,297,18.4,19.3,49,0.00,,,0.00,VWS V13.01,2013-02-16 17:59:00,
2013-02-16 12:04:00,26.1,9.9,30.22,West,263,6.0,11.8,50,0.00,,,0.00,VWS V13.01,2013-02-16 18:04:00,
2013-02-16 12:09:00,26.6,11.3,30.21,WNW,292,13.4,16.8,52,0.00,,,0.00,VWS V13.01,2013-02-16 18:09:00,
2013-02-16 12:14:00,26.6,9.5,30.21,West,271,12.8,15.2,48,0.00,,,0.00,VWS V13.01,2013-02-16 18:14:00,
2013-02-16 12:19:00,26.6,10.6,30.21,NW,305,2.0,15.4,50,0.00,,,0.00,VWS V13.01,2013-02-16 18:19:00,
2013-02-16 12:24:00,27.2,10.5,30.20,NW,326,14.5,17.8,49,0.00,,,0.00,VWS V13.01,2013-02-16 18:24:00,
2013-02-16 12:29:00,27.2,10.6,30.20,WNW,290,12.9,17.8,49,0.00,,,0.00,VWS V13.01,2013-02-16 18:29:00,
2013-02-16 12:34:00,27.1,10.4,30.20,WNW,295,13.5,14.4,49,0.00,,,0.00,VWS V13.01,2013-02-16 18:34:00,
2013-02-16 12:39:00,27.0,10.5,30.20,WNW,300,13.0,16.6,49,0.00,,,0.00,VWS V13.01,2013-02-16 18:39:00,
2013-02-16 12:44:00,27.3,10.9,30.20,West,269,8.1,16.5,50,0.00,,,0.00,VWS V13.01,2013-02-16 18:44:00,
2013-02-16 12:49:00,27.5,10.8,30.20,West,264,16.2,16.3,49,0.00,,,0.00,VWS V13.01,2013-02-16 18:49:00,
2013-02-16 12:54:00,27.7,11.0,30.19,West,274,19.8,19.8,49,0.00,,,0.00,VWS V13.01,2013-02-16 18:54:00,
2013-02-16 12:59:00,28.1,11.4,30.19,WNW,292,15.6,19.6,49,0.00,,,0.00,VWS V13.01,2013-02-16 18:59:00,
2013-02-16 13:04:00,27.7,11.0,30.19,NNW,329,8.5,15.8,49,0.00,,,0.00,VWS V13.01,2013-02-16 19:04:00,
2013-02-16 13:09:00,28.1,11.5,30.19,WNW,284,8.5,13.5,49,0.00,,,0.00,VWS V13.01,2013-02-16 19:09:00,
2013-02-16 13:14:00,28.4,10.4,30.19,West,274,13.5,16.5,46,0.00,,,0.00,VWS V13.01,2013-02-16 19:14:00,
2013-02-16 13:19:00,28.6,11.8,30.19,NW,326,20.4,21.6,49,0.00,,,0.00,VWS V13.01,2013-02-16 19:19:00,
2013-02-16 13:24:00,28.7,11.9,30.18,West,274,16.0,20.4,49,0.00,,,0.00,VWS V13.01,2013-02-16 19:24:00,
2013-02-16 13:29:00,28.2,10.8,30.18,WNW,288,13.9,16.9,47,0.00,,,0.00,VWS V13.01,2013-02-16 19:29:00,
2013-02-16 13:34:00,28.4,11.7,30.18,WNW,292,19.0,23.1,49,0.00,,,0.00,VWS V13.01,2013-02-16 19:34:00,
2013-02-16 13:39:00,28.4,10.9,30.18,NNW,340,7.7,11.6,47,0.00,,,0.00,VWS V13.01,2013-02-16 19:39:00,
2013-02-16 13:44:00,28.5,11.7,30.18,WSW,250,11.7,14.7,49,0.00,,,0.00,VWS V13.01,2013-02-16 19:44:00,
2013-02-16 13:49:00,28.8,11.4,30.18,WNW,290,14.9,18.6,48,0.00,,,0.00,VWS V13.01,2013-02-16 19:49:00,
2013-02-16 13:54:00,28.7,11.6,30.18,WNW,288,20.0,20.0,48,0.00,,,0.00,VWS V13.01,2013-02-16 19:54:00,
2013-02-16 13:58:00,28.5,11.7,30.18,WNW,284,12.2,17.0,49,0.00,,,0.00,VWS V13.01,2013-02-16 19:58:00,
2013-02-16 14:03:00,28.8,12.0,30.18,WSW,249,5.4,14.5,49,0.00,,,0.00,VWS V13.01,2013-02-16 20:03:00,
2013-02-16 14:08:00,29.2,12.4,30.17,NW,307,17.5,20.0,49,0.00,,,0.00,VWS V13.01,2013-02-16 20:08:00,
2013-02-16 14:13:00,29.2,12.4,30.17,NW,323,11.2,16.3,49,0.00,,,0.00,VWS V13.01,2013-02-16 20:13:00,
2013-02-16 14:18:00,29.4,12.6,30.16,West,263,16.2,18.8,49,0.00,,,0.00,VWS V13.01,2013-02-16 20:18:00,
2013-02-16 14:23:00,29.4,11.5,30.16,NW,307,14.4,18.6,47,0.00,,,0.00,VWS V13.01,2013-02-16 20:23:00,
2013-02-16 14:28:00,29.3,11.9,30.17,WNW,294,15.0,15.6,48,0.00,,,0.00,VWS V13.01,2013-02-16 20:28:00,
2013-02-16 14:33:00,29.4,11.9,30.16,NW,311,15.8,21.8,47,0.00,,,0.00,VWS V13.01,2013-02-16 20:33:00,
2013-02-16 14:38:00,28.7,12.0,30.17,NNW,329,19.9,20.6,49,0.00,,,0.00,VWS V13.01,2013-02-16 20:38:00,
2013-02-16 14:43:00,28.9,12.0,30.17,NW,319,13.5,21.3,49,0.00,,,0.00,VWS V13.01,2013-02-16 20:43:00,
2013-02-16 14:48:00,29.0,12.2,30.17,WNW,291,19.4,21.7,49,0.00,,,0.00,VWS V13.01,2013-02-16 20:48:00,
2013-02-16 14:53:00,29.2,12.4,30.17,WNW,285,11.7,19.9,49,0.00,,,0.00,VWS V13.01,2013-02-16 20:53:00,
2013-02-16 14:58:00,29.3,11.8,30.17,NW,314,15.3,15.3,47,0.00,,,0.00,VWS V13.01,2013-02-16 20:58:00,
2013-02-16 15:03:00,29.0,12.5,30.18,WSW,249,13.9,18.2,50,0.00,,,0.00,VWS V13.01,2013-02-16 21:03:00,
2013-02-16 15:08:00,29.3,13.4,30.18,WNW,291,14.5,20.6,51,0.00,,,0.00,VWS V13.01,2013-02-16 21:08:00,
2013-02-16 15:13:00,29.4,13.1,30.18,WNW,285,13.2,19.6,50,0.00,,,0.00,VWS V13.01,2013-02-16 21:13:00,
2013-02-16 15:18:00,29.6,13.5,30.18,NW,307,18.3,21.6,50,0.00,,,0.00,VWS V13.01,2013-02-16 21:18:00,
2013-02-16 15:23:00,29.4,12.1,30.18,NW,318,18.8,19.2,48,0.00,,,0.00,VWS V13.01,2013-02-16 21:23:00,
2013-02-16 15:28:00,29.4,11.8,30.17,NW,319,18.1,18.1,47,0.00,,,0.00,VWS V13.01,2013-02-16 21:28:00,
2013-02-16 15:33:00,29.2,12.4,30.17,WNW,292,16.3,19.5,49,0.00,,,0.00,VWS V13.01,2013-02-16 21:33:00,
2013-02-16 15:38:00,28.7,12.4,30.17,NW,318,16.1,23.0,50,0.00,,,0.00,VWS V13.01,2013-02-16 21:38:00,
2013-02-16 15:43:00,29.1,11.5,30.17,NW,315,18.0,20.6,47,0.00,,,0.00,VWS V13.01,2013-02-16 21:43:00,
2013-02-16 15:48:00,28.9,12.1,30.18,NW,316,14.7,18.9,49,0.00,,,0.00,VWS V13.01,2013-02-16 21:48:00,
2013-02-16 15:53:00,28.4,11.7,30.18,NW,319,12.8,18.6,49,0.00,,,0.00,VWS V13.01,2013-02-16 21:53:00,
2013-02-16 15:58:00,28.6,12.2,30.18,NW,304,15.4,17.1,50,0.00,,,0.00,VWS V13.01,2013-02-16 21:58:00,
2013-02-16 16:03:00,28.7,12.7,30.18,West,266,19.0,19.8,51,0.00,,,0.00,VWS V13.01,2013-02-16 22:03:00,
2013-02-16 16:08:00,28.7,12.7,30.18,NW,309,17.9,18.8,51,0.00,,,0.00,VWS V13.01,2013-02-16 22:08:00,
2013-02-16 16:13:00,28.5,12.9,30.18,WNW,297,17.2,17.5,52,0.00,,,0.00,VWS V13.01,2013-02-16 22:13:00,
2013-02-16 16:18:00,28.3,12.6,30.18,NW,312,14.7,17.0,51,0.00,,,0.00,VWS V13.01,2013-02-16 22:18:00,
2013-02-16 16:23:00,28.4,12.7,30.18,NW,308,16.9,17.8,51,0.00,,,0.00,VWS V13.01,2013-02-16 22:23:00,
2013-02-16 16:28:00,28.2,12.6,30.18,North,354,15.0,17.0,52,0.00,,,0.00,VWS V13.01,2013-02-16 22:28:00,
2013-02-16 16:33:00,27.8,13.1,30.17,WNW,288,13.5,15.3,54,0.00,,,0.00,VWS V13.01,2013-02-16 22:33:00,
2013-02-16 16:38:00,28.0,13.2,30.17,NW,315,14.4,17.3,53,0.00,,,0.00,VWS V13.01,2013-02-16 22:38:00,
2013-02-16 16:43:00,28.1,12.9,30.17,NW,308,14.9,16.2,52,0.00,,,0.00,VWS V13.01,2013-02-16 22:43:00,
2013-02-16 16:48:00,28.1,13.0,30.17,NW,305,17.9,19.6,53,0.00,,,0.00,VWS V13.01,2013-02-16 22:48:00,
2013-02-16 16:53:00,27.8,12.9,30.17,NW,304,16.7,17.9,53,0.00,,,0.00,VWS V13.01,2013-02-16 22:53:00,
2013-02-16 16:58:00,27.9,13.6,30.17,NW,305,15.8,16.5,54,0.00,,,0.00,VWS V13.01,2013-02-16 22:58:00,
2013-02-16 17:03:00,27.9,13.6,30.17,NW,304,16.0,16.0,54,0.00,,,0.00,VWS V13.01,2013-02-16 23:03:00,
2013-02-16 17:08:00,27.8,13.5,30.18,WNW,297,12.8,15.2,54,0.00,,,0.00,VWS V13.01,2013-02-16 23:08:00,
2013-02-16 17:13:00,27.9,13.5,30.18,NW,308,14.7,15.1,54,0.00,,,0.00,VWS V13.01,2013-02-16 23:13:00,
2013-02-16 17:18:00,27.3,13.1,30.18,NW,309,14.0,14.5,54,0.00,,,0.00,VWS V13.01,2013-02-16 23:18:00,
2013-02-16 17:23:00,27.5,13.3,30.18,WNW,298,12.6,13.4,54,0.00,,,0.00,VWS V13.01,2013-02-16 23:23:00,
2013-02-16 17:28:00,27.1,12.9,30.18,NW,305,15.7,17.8,54,0.00,,,0.00,VWS V13.01,2013-02-16 23:28:00,
2013-02-16 17:33:00,27.3,13.6,30.18,WNW,300,12.4,13.6,56,0.00,,,0.00,VWS V13.01,2013-02-16 23:33:00,
2013-02-16 17:38:00,27.3,13.3,30.18,NW,312,12.1,13.1,55,0.00,,,0.00,VWS V13.01,2013-02-16 23:38:00,
2013-02-16 17:43:00,27.1,13.1,30.18,NW,314,14.2,18.6,55,0.00,,,0.00,VWS V13.01,2013-02-16 23:43:00,
2013-02-16 17:48:00,26.8,13.0,30.18,NW,316,13.9,16.5,56,0.00,,,0.00,VWS V13.01,2013-02-16 23:48:00,
2013-02-16 17:53:00,26.6,13.0,30.18,NW,305,13.5,14.2,56,0.00,,,0.00,VWS V13.01,2013-02-16 23:53:00,
2013-02-16 17:58:00,26.6,13.3,30.18,NW,311,9.1,11.3,57,0.00,,,0.00,VWS V13.01,2013-02-16 23:58:00,
2013-02-16 18:03:00,26.5,13.6,30.18,NW,309,8.2,9.2,58,0.00,,,0.00,VWS V13.01,2013-02-17 00:03:00,
2013-02-16 18:08:00,26.2,13.5,30.18,NW,311,10.3,12.4,58,0.00,,,0.00,VWS V13.01,2013-02-17 00:08:00,